Time;durP1;ratioP1;P1;durP2;ratioP2;P2;SDS_P1;SDS_P2;PMS_P1;PMS_P2;Temp;Humidity;BMP_temperature;BMP_pressure;BME280_temperature;BME280_humidity;BME280_pressure;Samples;Min_cycle;Max_cycle;Signal;HPM_P1;HPM_P2
2023/04/19 00:01:12;;;;;;;11.68;6.32;;;;;;;;;;6230557;22;20437;-95
2023/04/19 00:03:41;;;;;;;12.00;5.93;;;;;;;;;;6254641;22;20010;-95
2023/04/19 00:06:13;;;;;;;13.43;5.68;;;;;;;;;;6230780;22;20384;-94
2023/04/19 00:08:40;;;;;;;15.48;6.30;;;;;;;;;;6230500;22;20552;-94
2023/04/19 00:11:13;;;;;;;15.48;7.28;;;;;;;;;;6230889;22;20075;-95
2023/04/19 00:13:39;;;;;;;15.63;6.38;;;;;;;;;;6254114;22;20082;-94
2023/04/19 00:16:06;;;;;;;11.90;6.80;;;;;;;;;;6230394;22;20119;-95
2023/04/19 00:18:32;;;;;;;16.60;6.43;;;;;;;;;;6254744;22;20086;-94
2023/04/19 00:21:01;;;;;;;11.48;6.80;;;;;;;;;;6231283;22;20063;-94
2023/04/19 00:23:30;;;;;;;12.00;6.55;;;;;;;;;;6230029;22;20497;-94
2023/04/19 00:26:03;;;;;;;11.88;6.63;;;;;;;;;;6226390;22;20058;-94
2023/04/19 00:28:30;;;;;;;13.60;6.70;;;;;;;;;;6249407;23;20004;-95
2023/04/19 00:30:59;;;;;;;20.45;6.93;;;;;;;;;;6249526;23;20039;-95
2023/04/19 00:33:25;;;;;;;14.25;6.82;;;;;;;;;;6224135;23;20016;-95
2023/04/19 00:35:54;;;;;;;19.40;5.93;;;;;;;;;;6249426;23;20062;-95
2023/04/19 00:38:20;;;;;;;16.55;6.90;;;;;;;;;;6249862;23;20283;-94
2023/04/19 00:40:46;;;;;;;17.40;7.15;;;;;;;;;;6224727;23;20008;-94
2023/04/19 00:43:17;;;;;;;13.48;6.68;;;;;;;;;;6248583;23;20008;-95
2023/04/19 00:45:45;;;;;;;9.73;6.05;;;;;;;;;;6250480;22;20039;-95
2023/04/19 00:48:20;;;;;;;16.63;7.57;;;;;;;;;;6223588;23;20035;-94
2023/04/19 00:50:47;;;;;;;14.00;6.53;;;;;;;;;;6243012;23;20012;-94
2023/04/19 00:53:13;;;;;;;19.77;6.65;;;;;;;;;;6222090;23;20134;-94
2023/04/19 00:55:39;;;;;;;12.60;6.68;;;;;;;;;;6249478;23;20008;-94
2023/04/19 00:58:07;;;;;;;26.92;9.13;;;;;;;;;;6223863;23;20038;-95
2023/04/19 01:00:33;;;;;;;14.68;7.90;;;;;;;;;;6249703;23;20010;-95
2023/04/19 01:03:07;;;;;;;19.15;7.82;;;;;;;;;;6247039;23;20064;-94
2023/04/19 01:05:34;;;;;;;17.95;8.43;;;;;;;;;;6249481;22;20086;-95
2023/04/19 01:08:00;;;;;;;13.65;7.20;;;;;;;;;;6223902;23;20214;-95
2023/04/19 01:10:28;;;;;;;16.35;8.45;;;;;;;;;;6224041;23;20343;-95
2023/04/19 01:12:54;;;;;;;17.17;8.13;;;;;;;;;;6223057;23;20081;-94
2023/04/19 01:15:22;;;;;;;17.15;8.13;;;;;;;;;;6221180;23;20080;-94
2023/04/19 01:17:57;;;;;;;15.30;8.43;;;;;;;;;;6246961;23;20035;-94
2023/04/19 01:20:33;;;;;;;17.88;9.20;;;;;;;;;;6248509;23;20008;-93
2023/04/19 01:22:59;;;;;;;20.48;9.00;;;;;;;;;;6222484;23;20032;-94
2023/04/19 01:25:37;;;;;;;15.40;8.43;;;;;;;;;;6223102;22;20020;-94
2023/04/19 01:28:03;;;;;;;20.55;7.97;;;;;;;;;;6224836;23;20430;-95
2023/04/19 01:30:59;;;;;;;19.33;8.85;;;;;;;;;;6222752;23;20429;-95
2023/04/19 01:33:25;;;;;;;17.52;8.95;;;;;;;;;;6222915;23;20008;-95
2023/04/19 01:35:52;;;;;;;19.15;8.85;;;;;;;;;;6249990;23;20008;-95
2023/04/19 01:38:34;;;;;;;16.38;9.25;;;;;;;;;;6248628;23;20012;-95
2023/04/19 01:41:01;;;;;;;18.60;8.82;;;;;;;;;;6226446;23;20016;-94
2023/04/19 01:43:27;;;;;;;23.80;9.10;;;;;;;;;;6223209;23;20012;-95
2023/04/19 01:45:55;;;;;;;19.10;8.95;;;;;;;;;;6222865;23;20019;-95
2023/04/19 01:48:21;;;;;;;13.13;7.35;;;;;;;;;;6224176;23;20015;-95
2023/04/19 01:50:47;;;;;;;14.68;8.73;;;;;;;;;;6223474;23;20016;-94
2023/04/19 01:53:14;;;;;;;17.35;9.15;;;;;;;;;;6222506;23;20018;-94
2023/04/19 01:55:40;;;;;;;15.98;8.25;;;;;;;;;;6221612;23;20012;-95
2023/04/19 01:58:26;;;;;;;14.55;7.20;;;;;;;;;;6247697;23;20012;-93
2023/04/19 02:00:53;;;;;;;17.27;7.13;;;;;;;;;;6248324;23;20087;-94
2023/04/19 02:03:19;;;;;;;14.88;7.70;;;;;;;;;;6221244;23;20008;-94
2023/04/19 02:05:45;;;;;;;12.98;7.30;;;;;;;;;;6248808;23;20046;-95
2023/04/19 02:08:12;;;;;;;14.98;8.20;;;;;;;;;;6222585;23;20016;-95
2023/04/19 02:10:38;;;;;;;10.43;6.20;;;;;;;;;;6249792;23;20015;-95
2023/04/19 02:13:04;;;;;;;12.52;6.70;;;;;;;;;;6223307;23;20119;-95
2023/04/19 02:15:31;;;;;;;13.10;6.97;;;;;;;;;;6224528;23;20016;-95
2023/04/19 02:18:07;;;;;;;17.52;7.13;;;;;;;;;;6247487;23;20000;-94
2023/04/19 02:20:39;;;;;;;12.73;7.13;;;;;;;;;;6224402;23;20058;-95
2023/04/19 02:23:06;;;;;;;10.75;6.22;;;;;;;;;;6249527;23;20353;-95
2023/04/19 02:25:32;;;;;;;16.73;6.38;;;;;;;;;;6248658;22;20047;-95
2023/04/19 02:27:58;;;;;;;12.20;5.82;;;;;;;;;;6249839;23;20008;-95
2023/04/19 02:31:00;;;;;;;9.82;5.15;;;;;;;;;;6248482;23;20031;-95
2023/04/19 02:33:27;;;;;;;11.57;5.65;;;;;;;;;;6242730;23;20445;-96
2023/04/19 02:36:06;;;;;;;11.75;6.22;;;;;;;;;;6248731;23;20060;-96
2023/04/19 02:38:32;;;;;;;14.52;6.78;;;;;;;;;;6251316;23;20539;-94
2023/04/19 02:40:59;;;;;;;10.82;5.70;;;;;;;;;;6249985;23;20087;-95
2023/04/19 02:43:25;;;;;;;12.90;6.32;;;;;;;;;;6250996;23;20160;-95
2023/04/19 02:45:58;;;;;;;11.52;6.13;;;;;;;;;;6251317;23;20038;-95
2023/04/19 02:48:24;;;;;;;12.30;6.35;;;;;;;;;;6251873;23;20033;-95
2023/04/19 02:50:50;;;;;;;13.90;6.88;;;;;;;;;;6251126;23;20012;-95
2023/04/19 02:53:16;;;;;;;11.77;5.70;;;;;;;;;;6252259;23;20015;-95
2023/04/19 02:55:42;;;;;;;14.45;6.53;;;;;;;;;;6226152;23;20019;-95
2023/04/19 02:58:08;;;;;;;14.77;6.28;;;;;;;;;;6226084;23;20498;-95
2023/04/19 03:00:36;;;;;;;17.77;6.38;;;;;;;;;;6251305;23;20020;-94
2023/04/19 03:03:06;;;;;;;12.02;5.30;;;;;;;;;;6251875;23;20009;-94
2023/04/19 03:05:32;;;;;;;15.13;7.22;;;;;;;;;;6226896;23;20055;-95
2023/04/19 03:07:58;;;;;;;16.10;6.13;;;;;;;;;;6250462;23;20384;-94
2023/04/19 03:10:25;;;;;;;17.77;5.35;;;;;;;;;;6226313;23;20013;-94
2023/04/19 03:13:01;;;;;;;12.95;5.57;;;;;;;;;;6225308;23;20016;-94
2023/04/19 03:15:27;;;;;;;11.90;5.32;;;;;;;;;;6250494;23;20015;-94
2023/04/19 03:17:53;;;;;;;14.75;5.10;;;;;;;;;;6225118;23;20006;-92
2023/04/19 03:20:19;;;;;;;15.07;5.93;;;;;;;;;;6250214;23;20004;-94
2023/04/19 03:22:53;;;;;;;15.98;5.78;;;;;;;;;;6250860;23;20436;-94
2023/04/19 03:25:19;;;;;;;11.88;5.68;;;;;;;;;;6231336;22;20015;-94
2023/04/19 03:27:50;;;;;;;10.23;5.70;;;;;;;;;;6254985;22;20019;-94
2023/04/19 03:30:22;;;;;;;9.32;5.03;;;;;;;;;;6255153;22;20011;-95
2023/04/19 03:32:58;;;;;;;10.07;5.55;;;;;;;;;;6230679;22;20026;-94
2023/04/19 03:35:31;;;;;;;10.27;5.75;;;;;;;;;;6255010;22;20035;-94
2023/04/19 03:37:59;;;;;;;8.52;4.60;;;;;;;;;;6253785;22;20730;-94
2023/04/19 03:40:47;;;;;;;10.82;5.45;;;;;;;;;;6230806;22;20008;-96
2023/04/19 03:43:33;;;;;;;9.93;5.57;;;;;;;;;;6280530;22;20031;-94
2023/04/19 03:46:22;;;;;;;11.43;4.50;;;;;;;;;;6280962;22;20007;-95
2023/04/19 03:48:48;;;;;;;13.68;5.78;;;;;;;;;;6255350;22;20026;-94
2023/04/19 03:51:18;;;;;;;11.18;4.93;;;;;;;;;;6255532;22;20004;-94
2023/04/19 03:54:01;;;;;;;;;;;;;;;;;;6280826;22;20023;-95
2023/04/19 03:56:27;;;;;;;8.85;4.65;;;;;;;;;;6255903;22;19903;-94
2023/04/19 03:58:58;;;;;;;12.25;5.00;;;;;;;;;;6282970;22;20361;-94
2023/04/19 04:01:26;;;;;;;7.63;4.40;;;;;;;;;;6255287;22;20057;-94
2023/04/19 04:04:12;;;;;;;14.20;5.25;;;;;;;;;;6256071;22;20011;-95
2023/04/19 04:06:38;;;;;;;9.65;4.72;;;;;;;;;;6255401;22;20008;-94
2023/04/19 04:09:07;;;;;;;9.95;5.43;;;;;;;;;;6229869;22;20016;-94
2023/04/19 04:11:34;;;;;;;10.95;5.40;;;;;;;;;;6254265;22;20031;-95
2023/04/19 04:14:01;;;;;;;13.05;6.30;;;;;;;;;;6255035;22;20022;-94
2023/04/19 04:16:27;;;;;;;13.52;7.18;;;;;;;;;;6255012;22;20027;-94
2023/04/19 04:18:53;;;;;;;15.40;5.75;;;;;;;;;;6256299;22;20133;-94
2023/04/19 04:21:35;;;;;;;12.48;5.97;;;;;;;;;;6255471;22;20407;-93
2023/04/19 04:24:09;;;;;;;14.60;6.45;;;;;;;;;;6257049;22;20069;-94
2023/04/19 04:26:38;;;;;;;11.48;5.65;;;;;;;;;;6250921;22;20020;-94
2023/04/19 04:29:08;;;;;;;12.82;5.72;;;;;;;;;;6227175;23;20011;-94
2023/04/19 04:31:35;;;;;;;16.77;7.15;;;;;;;;;;6251357;23;20000;-94
2023/04/19 04:34:08;;;;;;;16.38;6.57;;;;;;;;;;6225702;23;20015;-94
2023/04/19 04:36:55;;;;;;;12.82;6.28;;;;;;;;;;6251494;23;20384;-94
2023/04/19 04:39:23;;;;;;;13.98;6.43;;;;;;;;;;6250888;23;20001;-94
2023/04/19 04:41:56;;;;;;;10.40;5.63;;;;;;;;;;6225120;23;20378;-95
2023/04/19 04:44:23;;;;;;;12.18;6.13;;;;;;;;;;6248095;23;20004;-94
2023/04/19 04:46:49;;;;;;;10.18;5.57;;;;;;;;;;6250139;23;20011;-94
2023/04/19 04:49:15;;;;;;;11.50;5.80;;;;;;;;;;6225007;23;20000;-95
2023/04/19 04:51:41;;;;;;;15.88;6.05;;;;;;;;;;6225100;23;20429;-95
2023/04/19 04:54:14;;;;;;;9.40;5.13;;;;;;;;;;6225033;23;20018;-95
2023/04/19 04:56:40;;;;;;;8.75;4.28;;;;;;;;;;6223970;23;20282;-95
2023/04/19 04:59:07;;;;;;;9.95;5.22;;;;;;;;;;6224577;23;20054;-96
2023/04/19 05:01:35;;;;;;;7.25;3.92;;;;;;;;;;6249942;23;20020;-95
2023/04/19 05:04:01;;;;;;;7.28;3.95;;;;;;;;;;6249708;23;20016;-95
2023/04/19 05:06:33;;;;;;;7.50;3.88;;;;;;;;;;6249484;23;20018;-94
2023/04/19 05:09:02;;;;;;;6.45;3.47;;;;;;;;;;6246609;23;20008;-94
2023/04/19 05:11:28;;;;;;;8.25;4.10;;;;;;;;;;6223339;23;20008;-95
2023/04/19 05:13:57;;;;;;;9.13;3.95;;;;;;;;;;6248612;23;20381;-93
2023/04/19 05:16:24;;;;;;;9.50;3.42;;;;;;;;;;6223420;23;20390;-94
2023/04/19 05:18:54;;;;;;;6.40;3.65;;;;;;;;;;6249051;23;20067;-95
2023/04/19 05:21:22;;;;;;;6.80;3.50;;;;;;;;;;6224225;23;20004;-95
2023/04/19 05:23:52;;;;;;;8.57;3.97;;;;;;;;;;6247006;23;20012;-94
2023/04/19 05:26:19;;;;;;;5.38;3.63;;;;;;;;;;6247467;22;20088;-95
2023/04/19 05:28:49;;;;;;;7.28;4.07;;;;;;;;;;6222499;23;20400;-94
2023/04/19 05:31:19;;;;;;;8.65;3.92;;;;;;;;;;6220380;23;20103;-94
2023/04/19 05:33:46;;;;;;;7.93;3.50;;;;;;;;;;6222651;23;20012;-94
2023/04/19 05:36:12;;;;;;;8.15;3.90;;;;;;;;;;6246841;23;20008;-93
2023/04/19 05:38:41;;;;;;;8.80;3.90;;;;;;;;;;6248091;22;20010;-94
2023/04/19 05:41:08;;;;;;;6.43;2.97;;;;;;;;;;6246904;23;20012;-95
2023/04/19 05:43:34;;;;;;;12.68;3.75;;;;;;;;;;6221420;23;20004;-94
2023/04/19 05:46:00;;;;;;;6.80;3.55;;;;;;;;;;6220820;23;20008;-95
2023/04/19 05:48:33;;;;;;;11.50;3.80;;;;;;;;;;6247319;23;20070;-93
2023/04/19 05:51:07;;;;;;;11.57;3.38;;;;;;;;;;6248410;23;20015;-95
2023/04/19 05:53:38;;;;;;;8.05;3.40;;;;;;;;;;6249116;23;20011;-94
2023/04/19 05:56:11;;;;;;;5.95;4.00;;;;;;;;;;6223574;23;20089;-94
2023/04/19 05:58:37;;;;;;;10.68;4.05;;;;;;;;;;6224475;23;20012;-94
2023/04/19 06:01:04;;;;;;;7.78;3.95;;;;;;;;;;6248829;23;20003;-93
2023/04/19 06:06:58;;;;;;;5.78;3.15;;;;;;;;;;6220146;22;20015;-94
2023/04/19 06:09:25;;;;;;;5.70;3.40;;;;;;;;;;6223265;23;20039;-95
2023/04/19 06:11:53;;;;;;;7.05;3.33;;;;;;;;;;6223981;23;20008;-95
2023/04/19 06:14:30;;;;;;;5.25;3.17;;;;;;;;;;6249012;23;20008;-95
2023/04/19 06:16:56;;;;;;;4.88;2.42;;;;;;;;;;6248221;23;20000;-96
2023/04/19 06:19:23;;;;;;;8.95;2.63;;;;;;;;;;6248665;23;20422;-96
2023/04/19 06:21:52;;;;;;;6.95;3.00;;;;;;;;;;6223310;23;20012;-95
2023/04/19 06:24:29;;;;;;;;;;;;;;;;;;;;;
2023/04/19 06:27:01;;;;;;;9.15;3.00;;;;;;;;;;6271269;22;20039;-96
2023/04/19 06:29:27;;;;;;;7.80;2.83;;;;;;;;;;6254368;22;20028;-96
2023/04/19 06:31:53;;;;;;;10.50;2.85;;;;;;;;;;6228532;22;20018;-95
2023/04/19 06:34:22;;;;;;;5.30;2.65;;;;;;;;;;6229613;22;20004;-95
2023/04/19 06:36:51;;;;;;;7.53;3.10;;;;;;;;;;6249473;22;20278;-94
2023/04/19 06:39:17;;;;;;;4.82;2.53;;;;;;;;;;6230264;22;20449;-94
2023/04/19 06:41:44;;;;;;;5.32;2.35;;;;;;;;;;6255471;22;19999;-94
2023/04/19 06:44:20;;;;;;;4.35;2.20;;;;;;;;;;6230727;22;20003;-95
2023/04/19 06:46:48;;;;;;;5.18;2.78;;;;;;;;;;6255635;22;20000;-95
2023/04/19 06:49:15;;;;;;;6.88;3.05;;;;;;;;;;6255250;22;19999;-95
2023/04/19 06:51:41;;;;;;;4.30;2.50;;;;;;;;;;6254606;22;20385;-96
2023/04/19 06:54:08;;;;;;;4.00;2.25;;;;;;;;;;6256193;22;20004;-95
2023/04/19 06:56:45;;;;;;;3.75;2.85;;;;;;;;;;6230573;22;20326;-95
2023/04/19 06:59:16;;;;;;;4.32;2.38;;;;;;;;;;6254354;22;20069;-95
2023/04/19 07:01:55;;;;;;;10.15;3.05;;;;;;;;;;6280976;22;20271;-95
2023/04/19 07:04:23;;;;;;;6.07;2.33;;;;;;;;;;6255154;22;20014;-95
2023/04/19 07:06:50;;;;;;;5.10;2.20;;;;;;;;;;6254231;22;20391;-95
2023/04/19 07:09:17;;;;;;;8.02;3.03;;;;;;;;;;6255292;22;20057;-94
2023/04/19 07:11:43;;;;;;;5.28;2.58;;;;;;;;;;6281468;22;20011;-94
2023/04/19 07:14:10;;;;;;;5.70;2.13;;;;;;;;;;6256062;22;20007;-95
2023/04/19 07:16:39;;;;;;;4.78;2.22;;;;;;;;;;6253754;22;20011;-93
2023/04/19 07:19:25;;;;;;;4.13;1.58;;;;;;;;;;6255182;22;20089;-95
2023/04/19 07:21:51;;;;;;;2.40;1.95;;;;;;;;;;6230243;22;20022;-95
2023/04/19 07:24:17;;;;;;;2.45;1.60;;;;;;;;;;6257382;22;20026;-94
2023/04/19 07:26:50;;;;;;;8.32;1.75;;;;;;;;;;6252863;22;20547;-95
2023/04/19 07:29:26;;;;;;;3.50;1.90;;;;;;;;;;6253281;23;20015;-95
2023/04/19 07:34:41;;;;;;;3.03;1.77;;;;;;;;;;6255573;23;19926;-95
2023/04/19 07:39:54;;;;;;;3.47;1.95;;;;;;;;;;6257842;23;20073;-95
2023/04/19 07:42:20;;;;;;;4.65;2.00;;;;;;;;;;6257630;23;20048;-96
2023/04/19 07:44:50;;;;;;;3.15;1.92;;;;;;;;;;6229015;23;20093;-95
2023/04/19 07:47:19;;;;;;;3.45;2.22;;;;;;;;;;6254296;23;20008;-96
2023/04/19 07:50:04;;;;;;;6.35;2.00;;;;;;;;;;6255337;23;20007;-95
2023/04/19 07:52:33;;;;;;;9.27;2.03;;;;;;;;;;6254949;23;20063;-95
2023/04/19 07:55:00;;;;;;;4.40;2.33;;;;;;;;;;6230436;23;20012;-95
2023/04/19 07:57:29;;;;;;;3.30;1.35;;;;;;;;;;6255961;23;20012;-94
2023/04/19 07:59:58;;;;;;;3.83;1.90;;;;;;;;;;6253673;23;20397;-95
2023/04/19 08:02:27;;;;;;;3.08;1.98;;;;;;;;;;6256055;23;20004;-95
2023/04/19 08:04:55;;;;;;;2.05;1.60;;;;;;;;;;6254636;23;20012;-93
2023/04/19 08:07:22;;;;;;;2.63;1.70;;;;;;;;;;6255908;23;20012;-95
2023/04/19 08:09:57;;;;;;;2.63;1.80;;;;;;;;;;6254299;23;20012;-95
2023/04/19 08:12:23;;;;;;;3.03;1.70;;;;;;;;;;6256117;23;20016;-96
2023/04/19 08:14:55;;;;;;;6.30;2.30;;;;;;;;;;6230612;23;20012;-95
2023/04/19 08:17:23;;;;;;;2.67;1.70;;;;;;;;;;6231922;23;20231;-95
2023/04/19 08:19:49;;;;;;;4.82;1.35;;;;;;;;;;6229019;23;20035;-95
2023/04/19 08:22:26;;;;;;;3.72;1.73;;;;;;;;;;6255230;23;20051;-95
2023/04/19 08:24:55;;;;;;;6.97;2.78;;;;;;;;;;6253812;23;20011;-95
2023/04/19 08:27:21;;;;;;;1.83;1.63;;;;;;;;;;6232640;22;20463;-95
2023/04/19 08:30:11;;;;;;;2.40;1.33;;;;;;;;;;6230867;23;20012;-95
2023/04/19 08:32:38;;;;;;;4.80;1.60;;;;;;;;;;6259069;22;20398;-95
2023/04/19 08:35:11;;;;;;;3.97;1.83;;;;;;;;;;6256531;23;20014;-95
2023/04/19 08:37:59;;;;;;;3.78;1.90;;;;;;;;;;6258408;23;20015;-96
2023/04/19 08:40:25;;;;;;;5.03;2.10;;;;;;;;;;6258644;23;20000;-95
2023/04/19 08:42:51;;;;;;;5.22;2.10;;;;;;;;;;6232131;23;20019;-94
2023/04/19 08:45:19;;;;;;;3.05;2.20;;;;;;;;;;6258992;23;19985;-95
2023/04/19 08:47:49;;;;;;;3.67;2.30;;;;;;;;;;6233164;23;20012;-95
2023/04/19 08:50:16;;;;;;;2.55;2.10;;;;;;;;;;6256559;23;20008;-95
2023/04/19 08:52:43;;;;;;;5.78;2.10;;;;;;;;;;6231422;23;20012;-94
2023/04/19 08:55:10;;;;;;;3.05;1.83;;;;;;;;;;6232631;23;20071;-95
2023/04/19 08:57:36;;;;;;;2.72;1.75;;;;;;;;;;6258529;23;20037;-95
2023/04/19 09:00:07;;;;;;;5.70;1.85;;;;;;;;;;6232408;23;20024;-95
2023/04/19 09:03:05;;;;;;;;;;;;;;;;;;;;;
2023/04/19 09:05:31;;;;;;;4.28;1.95;;;;;;;;;;6260174;23;20012;-95
2023/04/19 09:08:23;;;;;;;3.22;2.55;;;;;;;;;;6234676;23;20057;-96
2023/04/19 09:13:55;;;;;;;4.18;2.28;;;;;;;;;;6228668;22;20008;-96
2023/04/19 09:16:35;;;;;;;4.07;2.28;;;;;;;;;;6259470;23;20008;-96
2023/04/19 09:19:02;;;;;;;3.08;2.15;;;;;;;;;;6259771;23;20424;-95
2023/04/19 09:21:44;;;;;;;9.20;2.47;;;;;;;;;;6233580;23;20016;-96
2023/04/19 09:27:55;;;;;;;2.00;1.80;;;;;;;;;;6181852;23;20077;-96
2023/04/19 09:30:31;;;;;;;4.32;2.22;;;;;;;;;;6169057;23;20021;-96
2023/04/19 09:32:57;;;;;;;;;;;;;;;;;;6234766;23;20011;-96
2023/04/19 09:35:38;;;;;;;2.85;1.85;;;;;;;;;;6259185;23;19914;-96
2023/04/19 09:38:06;;;;;;;3.00;2.03;;;;;;;;;;6259583;23;20075;-96
2023/04/19 09:40:54;;;;;;;3.03;2.05;;;;;;;;;;6257724;23;20091;-96
2023/04/19 09:43:24;;;;;;;2.95;1.73;;;;;;;;;;6258659;23;20008;-96
2023/04/19 09:45:51;;;;;;;4.20;1.58;;;;;;;;;;6259709;22;20039;-96
2023/04/19 09:48:27;;;;;;;2.35;1.88;;;;;;;;;;6233520;23;20071;-95
2023/04/19 09:51:15;;;;;;;3.08;1.83;;;;;;;;;;6237217;23;20028;-96
2023/04/19 09:54:23;;;;;;;9.20;2.33;;;;;;;;;;6236773;23;20020;-96
2023/04/19 09:57:00;;;;;;;15.50;1.92;;;;;;;;;;6260598;23;20008;-96
2023/04/19 09:59:28;;;;;;;6.05;1.98;;;;;;;;;;6263031;23;19995;-96
2023/04/19 10:02:19;;;;;;;5.15;1.80;;;;;;;;;;6237929;23;20095;-96
2023/04/19 10:05:13;;;;;;;1.70;1.48;;;;;;;;;;6261612;23;20019;-96
2023/04/19 10:07:42;;;;;;;2.72;1.63;;;;;;;;;;6252836;22;20469;-96
2023/04/19 10:10:15;;;;;;;2.20;1.58;;;;;;;;;;6235637;23;20035;-96
2023/04/19 10:12:52;;;;;;;4.03;2.40;;;;;;;;;;6261492;23;20012;-96
2023/04/19 10:15:31;;;;;;;4.87;1.63;;;;;;;;;;6263763;23;20012;-96
2023/04/19 10:18:21;;;;;;;2.45;1.80;;;;;;;;;;6268331;22;20012;-96
2023/04/19 12:58:03;;;;;;;5.22;3.22;;;;;;;;;;6247364;22;20078;-94
2023/04/19 13:00:30;;;;;;;3.47;2.58;;;;;;;;;;6234224;22;20019;-93
2023/04/19 13:02:56;;;;;;;5.65;2.60;;;;;;;;;;6233834;22;20085;-94
2023/04/19 13:05:26;;;;;;;8.18;3.05;;;;;;;;;;6230172;22;20016;-94
2023/04/19 13:07:52;;;;;;;19.08;13.00;;;;;;;;;;6262517;22;20007;-95
2023/04/19 13:10:19;;;;;;;71.20;36.80;;;;;;;;;;6263010;22;20025;-94
2023/04/19 13:12:57;;;;;;;27.92;17.88;;;;;;;;;;6239202;22;20007;-92
2023/04/19 13:15:28;;;;;;;13.38;7.78;;;;;;;;;;6238130;22;20019;-91
2023/04/19 13:18:01;;;;;;;14.65;11.50;;;;;;;;;;6237292;22;20008;-94
2023/04/19 13:20:32;;;;;;;7.47;4.47;;;;;;;;;;6262019;22;20008;-95
2023/04/19 13:22:59;;;;;;;10.07;3.92;;;;;;;;;;6230303;22;20126;-93
2023/04/19 13:25:25;;;;;;;6.35;3.75;;;;;;;;;;6258705;22;20023;-95
2023/04/19 13:28:18;;;;;;;6.00;3.17;;;;;;;;;;6257846;22;20503;-93
2023/04/19 13:30:45;;;;;;;14.93;3.72;;;;;;;;;;6219739;23;20016;-94
2023/04/19 13:33:11;;;;;;;5.53;3.13;;;;;;;;;;6230340;22;20015;-94
2023/04/19 13:35:43;;;;;;;6.47;3.28;;;;;;;;;;6254793;22;20012;-94
2023/04/19 13:38:18;;;;;;;9.07;3.58;;;;;;;;;;6258867;22;20004;-94
2023/04/19 13:40:44;;;;;;;7.30;3.30;;;;;;;;;;6259977;22;20006;-93
2023/04/19 13:43:17;;;;;;;6.55;3.60;;;;;;;;;;6235158;22;20015;-94
2023/04/19 13:45:46;;;;;;;6.78;3.85;;;;;;;;;;6258041;22;20429;-94
2023/04/19 13:48:15;;;;;;;6.50;3.65;;;;;;;;;;6259312;22;20182;-94
2023/04/19 13:50:41;;;;;;;8.73;3.40;;;;;;;;;;6236293;22;20039;-94
2023/04/19 13:53:11;;;;;;;15.02;3.70;;;;;;;;;;6231989;22;20016;-94
2023/04/19 13:55:37;;;;;;;6.22;4.03;;;;;;;;;;6255058;22;20441;-93
2023/04/19 13:58:03;;;;;;;8.32;3.97;;;;;;;;;;6223963;22;20024;-93
2023/04/19 14:00:30;;;;;;;7.65;4.05;;;;;;;;;;6253453;23;20488;-95
2023/04/19 14:02:56;;;;;;;10.88;3.72;;;;;;;;;;6249115;23;20605;-94
2023/04/19 14:05:22;;;;;;;8.55;3.75;;;;;;;;;;6247514;23;20004;-94
2023/04/19 14:07:48;;;;;;;7.78;4.40;;;;;;;;;;6248679;23;20020;-95
2023/04/19 14:10:18;;;;;;;8.77;3.80;;;;;;;;;;6228301;23;20016;-93
2023/04/19 14:13:01;;;;;;;6.43;4.18;;;;;;;;;;6252140;23;20042;-94
2023/04/19 14:15:29;;;;;;;13.57;3.90;;;;;;;;;;6227866;23;20016;-93
2023/04/19 14:21:26;;;;;;;7.30;3.78;;;;;;;;;;6242224;23;20024;-93
2023/04/19 14:23:54;;;;;;;5.82;3.33;;;;;;;;;;6254989;23;20001;-93
2023/04/19 14:26:52;;;;;;;11.95;3.83;;;;;;;;;;6228874;23;20012;-95
2023/04/19 14:29:25;;;;;;;16.17;4.00;;;;;;;;;;6230588;23;20078;-93
2023/04/19 14:31:57;;;;;;;7.15;3.55;;;;;;;;;;6253721;23;20011;-95
2023/04/19 14:34:32;;;;;;;8.65;3.88;;;;;;;;;;6252842;23;20035;-93
2023/04/19 14:36:58;;;;;;;7.60;6.00;;;;;;;;;;6253685;23;20008;-94
2023/04/19 14:39:35;;;;;;;7.85;4.35;;;;;;;;;;6229199;23;20012;-95
2023/04/19 14:44:57;;;;;;;5.10;3.17;;;;;;;;;;6223352;23;20019;-94
2023/04/19 14:47:29;;;;;;;10.20;2.80;;;;;;;;;;6226648;23;20196;-93
2023/04/19 14:49:59;;;;;;;9.75;3.17;;;;;;;;;;6248927;23;20008;-93
2023/04/19 14:52:25;;;;;;;8.43;3.20;;;;;;;;;;6252967;23;20004;-95
2023/04/19 14:54:52;;;;;;;3.45;2.78;;;;;;;;;;6255368;23;20012;-93
2023/04/19 14:57:24;;;;;;;10.68;2.88;;;;;;;;;;6252940;23;20319;-94
2023/04/19 14:59:56;;;;;;;4.05;3.00;;;;;;;;;;6228929;22;20133;-95
2023/04/19 15:02:23;;;;;;;17.70;3.35;;;;;;;;;;6253588;23;20004;-95
2023/04/19 15:05:01;;;;;;;6.55;3.20;;;;;;;;;;6227849;23;20422;-94
2023/04/19 15:07:28;;;;;;;7.95;2.70;;;;;;;;;;6229247;23;20438;-95
2023/04/19 15:09:54;;;;;;;8.35;2.63;;;;;;;;;;6230353;23;20347;-94
2023/04/19 15:12:20;;;;;;;7.72;2.65;;;;;;;;;;6229998;23;20016;-95
2023/04/19 15:14:46;;;;;;;10.82;3.00;;;;;;;;;;6228627;23;20093;-94
2023/04/19 15:17:19;;;;;;;5.32;2.90;;;;;;;;;;6230369;23;20024;-95
2023/04/19 15:19:45;;;;;;;3.75;2.10;;;;;;;;;;6229791;23;20058;-95
2023/04/19 15:22:12;;;;;;;6.75;2.90;;;;;;;;;;6227834;23;20011;-96
2023/04/19 15:24:38;;;;;;;6.93;2.80;;;;;;;;;;6227920;23;20004;-94
2023/04/19 15:27:07;;;;;;;8.68;2.30;;;;;;;;;;6229135;23;20004;-95
2023/04/19 15:32:37;;;;;;;8.15;2.85;;;;;;;;;;6225574;23;20296;-96
2023/04/19 15:35:03;;;;;;;11.13;2.15;;;;;;;;;;6250245;23;20091;-95
2023/04/19 15:37:30;;;;;;;16.75;4.43;;;;;;;;;;6252550;23;20004;-95
2023/04/19 15:40:00;;;;;;;4.85;2.75;;;;;;;;;;6229969;23;20012;-95
2023/04/19 15:42:29;;;;;;;5.57;2.97;;;;;;;;;;6253602;23;20004;-96
2023/04/19 15:44:55;;;;;;;6.18;2.75;;;;;;;;;;6253543;23;20167;-95
2023/04/19 15:47:26;;;;;;;6.18;2.97;;;;;;;;;;6229900;23;20031;-95
2023/04/19 15:49:59;;;;;;;5.18;2.58;;;;;;;;;;6231216;23;20065;-96
2023/04/19 15:52:25;;;;;;;6.00;3.22;;;;;;;;;;6230176;23;20008;-95
2023/04/19 15:54:51;;;;;;;5.13;2.60;;;;;;;;;;6252948;23;20008;-96
2023/04/19 15:57:17;;;;;;;6.50;2.53;;;;;;;;;;6228236;23;20016;-95
2023/04/19 15:59:52;;;;;;;6.30;3.55;;;;;;;;;;6204387;22;20024;-95
2023/04/19 16:02:21;;;;;;;3.45;2.55;;;;;;;;;;6223409;23;20028;-95
2023/04/19 16:04:47;;;;;;;4.70;2.85;;;;;;;;;;6222274;23;20001;-95
2023/04/19 16:07:16;;;;;;;9.95;2.78;;;;;;;;;;6195518;23;20025;-94
2023/04/19 16:09:42;;;;;;;7.20;3.17;;;;;;;;;;6222966;23;20000;-94
2023/04/19 16:12:08;;;;;;;10.23;2.72;;;;;;;;;;6203291;23;20054;-95
2023/04/19 16:14:35;;;;;;;7.05;2.80;;;;;;;;;;6202721;23;20063;-95
2023/04/19 16:17:04;;;;;;;6.20;2.65;;;;;;;;;;6201443;23;20000;-95
2023/04/19 16:19:31;;;;;;;7.63;2.85;;;;;;;;;;6227798;23;20031;-95
2023/04/19 16:22:00;;;;;;;9.30;2.63;;;;;;;;;;6201698;23;20000;-94
2023/04/19 16:24:30;;;;;;;6.13;2.50;;;;;;;;;;6200858;23;20016;-95
2023/04/19 16:27:14;;;;;;;3.50;2.20;;;;;;;;;;6226634;23;20518;-94
2023/04/19 16:29:40;;;;;;;6.50;2.72;;;;;;;;;;6227067;23;20481;-95
2023/04/19 16:32:09;;;;;;;8.20;2.60;;;;;;;;;;6203185;23;20017;-96
2023/04/19 16:34:35;;;;;;;5.95;2.42;;;;;;;;;;6226668;23;20004;-95
2023/04/19 16:37:01;;;;;;;8.68;2.95;;;;;;;;;;6227679;23;20034;-95
2023/04/19 16:39:27;;;;;;;6.50;2.45;;;;;;;;;;6227557;23;20004;-96
2023/04/19 16:42:00;;;;;;;4.63;2.17;;;;;;;;;;6202400;23;20000;-96
2023/04/19 16:44:26;;;;;;;3.40;2.10;;;;;;;;;;6226719;23;20012;-95
2023/04/19 16:46:56;;;;;;;6.43;2.88;;;;;;;;;;6202935;23;20015;-93
2023/04/19 16:49:31;;;;;;;4.93;2.10;;;;;;;;;;6227141;23;20287;-95
2023/04/19 16:51:57;;;;;;;5.78;2.30;;;;;;;;;;6227601;23;20088;-94
2023/04/19 16:54:24;;;;;;;3.72;1.98;;;;;;;;;;6201025;23;20016;-94
2023/04/19 16:56:50;;;;;;;3.67;1.80;;;;;;;;;;6224718;23;20008;-95
2023/04/19 16:59:33;;;;;;;3.65;2.30;;;;;;;;;;6213119;22;20031;-95
2023/04/19 17:01:59;;;;;;;5.57;2.40;;;;;;;;;;6252606;23;20091;-95
2023/04/19 17:04:26;;;;;;;2.75;2.03;;;;;;;;;;6227766;23;20004;-95
2023/04/19 17:07:01;;;;;;;5.63;2.30;;;;;;;;;;6227161;23;20524;-94
2023/04/19 17:09:27;;;;;;;5.40;2.30;;;;;;;;;;6229278;23;20019;-94
2023/04/19 17:11:54;;;;;;;10.85;1.95;;;;;;;;;;6228472;23;20012;-93
2023/04/19 17:14:20;;;;;;;11.82;2.47;;;;;;;;;;6227155;23;20018;-94
2023/04/19 17:16:49;;;;;;;6.45;2.20;;;;;;;;;;6252019;23;20316;-93
2023/04/19 17:19:16;;;;;;;5.47;3.42;;;;;;;;;;6252166;23;20012;-93
2023/04/19 17:21:45;;;;;;;4.28;2.42;;;;;;;;;;6251346;23;20008;-94
2023/04/19 17:24:11;;;;;;;7.90;3.40;;;;;;;;;;6252432;23;20308;-94
2023/04/19 17:26:37;;;;;;;4.68;2.30;;;;;;;;;;6226750;23;20468;-94
2023/04/19 17:29:04;;;;;;;7.40;2.50;;;;;;;;;;6227955;23;20004;-93
2023/04/19 17:31:41;;;;;;;5.75;2.35;;;;;;;;;;6231152;23;20061;-93
2023/04/19 17:34:07;;;;;;;4.68;2.47;;;;;;;;;;6226670;23;20020;-93
2023/04/19 17:36:34;;;;;;;6.63;2.90;;;;;;;;;;6225741;23;20005;-93
2023/04/19 17:39:00;;;;;;;8.93;2.95;;;;;;;;;;6229698;23;20027;-94
2023/04/19 17:41:29;;;;;;;5.45;2.38;;;;;;;;;;6250691;23;20008;-94
2023/04/19 17:43:56;;;;;;;7.65;3.03;;;;;;;;;;6250983;23;20008;-93
2023/04/19 17:46:22;;;;;;;6.57;2.83;;;;;;;;;;6229294;23;20039;-94
2023/04/19 17:48:51;;;;;;;4.03;2.58;;;;;;;;;;6254460;23;20063;-95
2023/04/19 17:51:30;;;;;;;6.40;3.05;;;;;;;;;;6252099;23;20072;-94
2023/04/19 17:53:56;;;;;;;3.97;2.50;;;;;;;;;;6255033;23;20031;-94
2023/04/19 17:56:23;;;;;;;7.10;2.50;;;;;;;;;;6254201;23;20012;-94
2023/04/19 17:58:49;;;;;;;8.98;3.47;;;;;;;;;;6260917;22;20004;-94
2023/04/19 18:01:18;;;;;;;5.25;2.70;;;;;;;;;;6259083;22;20004;-95